KNA3215 ZPPP-ZGDY
Flight info
| Callsign | KNA3215 |
|---|---|
| Flight time | 1h 27m |
| Altitude | 37100 |
| Route | NODI4Q NODIB W137 LPS A581 HUY W140 HUY HUY1A |
| Aircraft | B738/M-SDE2E3FGHIRWXY/LB1 |
Departure
| Time | 2026-04-27 13:13 |
|---|---|
| Airport | Kunming Changshui International Airport (ZPPP) |
Arrival
| Time | 2026-04-27 14:41 |
|---|---|
| Airport | Zhangjiajie Hehua International Airport (ZGDY) |
| Time | Latitude | Longitude | Altitude | Speed | Heading |
|---|---|---|---|---|---|
| 2026-04-27 12:49 | 25.10200 | 102.93417 | 6910 ft | 0 kts | 13° |
| 2026-04-27 12:59 | 25.10189 | 102.93414 | 6910 ft | 2 kts | 13° |
| 2026-04-27 12:59 | 25.10174 | 102.93411 | 6910 ft | 2 kts | 14° |
| 2026-04-27 13:00 | 25.10160 | 102.93407 | 6910 ft | 2 kts | 13° |
| 2026-04-27 13:00 | 25.10145 | 102.93402 | 6910 ft | 2 kts | 14° |
| 2026-04-27 13:00 | 25.10131 | 102.93398 | 6910 ft | 2 kts | 13° |
| 2026-04-27 13:00 | 25.10116 | 102.93394 | 6910 ft | 2 kts | 13° |
| 2026-04-27 13:01 | 25.10102 | 102.93391 | 6910 ft | 2 kts | 16° |
| 2026-04-27 13:01 | 25.10088 | 102.93384 | 6910 ft | 2 kts | 37° |
| 2026-04-27 13:01 | 25.10077 | 102.93372 | 6910 ft | 2 kts | 52° |
| 2026-04-27 13:01 | 25.10070 | 102.93359 | 6910 ft | 2 kts | 68° |
| 2026-04-27 13:02 | 25.10065 | 102.93343 | 6910 ft | 2 kts | 84° |
| 2026-04-27 13:02 | 25.10066 | 102.93326 | 6910 ft | 1 kts | 100° |
| 2026-04-27 13:02 | 25.10067 | 102.93319 | 6910 ft | 1 kts | 105° |
| 2026-04-27 13:02 | 25.10068 | 102.93317 | 6910 ft | 0 kts | 104° |
| 2026-04-27 13:05 | 25.10062 | 102.93340 | 6910 ft | 6 kts | 104° |
| 2026-04-27 13:05 | 25.10048 | 102.93401 | 6910 ft | 8 kts | 104° |
| 2026-04-27 13:05 | 25.10053 | 102.93459 | 6910 ft | 7 kts | 53° |
| 2026-04-27 13:06 | 25.10084 | 102.93507 | 6910 ft | 9 kts | 62° |
| 2026-04-27 13:06 | 25.10054 | 102.93582 | 6910 ft | 13 kts | 122° |
| 2026-04-27 13:06 | 25.10073 | 102.93684 | 6910 ft | 18 kts | 39° |
| 2026-04-27 13:06 | 25.10187 | 102.93782 | 6910 ft | 23 kts | 38° |
| 2026-04-27 13:07 | 25.10328 | 102.93904 | 6910 ft | 27 kts | 38° |
| 2026-04-27 13:07 | 25.10476 | 102.94036 | 6910 ft | 26 kts | 40° |
| 2026-04-27 13:07 | 25.10617 | 102.94154 | 6909 ft | 24 kts | 39° |
| 2026-04-27 13:07 | 25.10746 | 102.94267 | 6910 ft | 22 kts | 38° |
| 2026-04-27 13:08 | 25.10867 | 102.94372 | 6909 ft | 21 kts | 38° |
| 2026-04-27 13:08 | 25.10977 | 102.94467 | 6909 ft | 19 kts | 38° |
| 2026-04-27 13:08 | 25.11078 | 102.94557 | 6909 ft | 17 kts | 39° |
| 2026-04-27 13:08 | 25.11169 | 102.94638 | 6909 ft | 15 kts | 39° |
| 2026-04-27 13:09 | 25.11250 | 102.94710 | 6909 ft | 14 kts | 39° |
| 2026-04-27 13:09 | 25.11323 | 102.94774 | 6909 ft | 12 kts | 39° |
| 2026-04-27 13:09 | 25.11390 | 102.94833 | 6909 ft | 13 kts | 39° |
| 2026-04-27 13:09 | 25.11482 | 102.94907 | 6909 ft | 18 kts | 36° |
| 2026-04-27 13:10 | 25.11596 | 102.95007 | 6909 ft | 23 kts | 39° |
| 2026-04-27 13:10 | 25.11736 | 102.95132 | 6909 ft | 28 kts | 39° |
| 2026-04-27 13:10 | 25.11906 | 102.95275 | 6909 ft | 32 kts | 38° |
| 2026-04-27 13:10 | 25.12078 | 102.95427 | 6909 ft | 31 kts | 39° |
| 2026-04-27 13:11 | 25.12243 | 102.95580 | 6909 ft | 30 kts | 41° |
| 2026-04-27 13:11 | 25.12255 | 102.95695 | 6909 ft | 14 kts | 130° |
| 2026-04-27 13:11 | 25.12193 | 102.95775 | 6909 ft | 12 kts | 131° |
| 2026-04-27 13:11 | 25.12130 | 102.95824 | 6909 ft | 9 kts | 188° |
| 2026-04-27 13:12 | 25.12082 | 102.95782 | 6909 ft | 7 kts | 218° |
| 2026-04-27 13:12 | 25.12044 | 102.95750 | 6909 ft | 6 kts | 218° |
| 2026-04-27 13:12 | 25.11967 | 102.95683 | 6909 ft | 37 kts | 217° |
| 2026-04-27 13:12 | 25.11564 | 102.95356 | 6909 ft | 103 kts | 216° |
| 2026-04-27 13:13 | 25.10857 | 102.94730 | 6910 ft | 157 kts | 220° |
| 2026-04-27 13:13 | 25.09905 | 102.93902 | 7185 ft | 180 kts | 216° |
| 2026-04-27 13:13 | 25.08867 | 102.93138 | 7932 ft | 177 kts | 206° |
| 2026-04-27 13:13 | 25.07754 | 102.92595 | 8574 ft | 179 kts | 212° |
| 2026-04-27 13:14 | 25.06741 | 102.91717 | 8958 ft | 191 kts | 224° |
| 2026-04-27 13:14 | 25.05583 | 102.90916 | 9326 ft | 208 kts | 196° |
| 2026-04-27 13:14 | 25.04087 | 102.91080 | 9702 ft | 231 kts | 158° |
| 2026-04-27 13:14 | 25.02852 | 102.92335 | 10042 ft | 254 kts | 122° |
| 2026-04-27 13:15 | 25.02393 | 102.94275 | 10391 ft | 273 kts | 94° |
| 2026-04-27 13:15 | 25.02518 | 102.96397 | 10802 ft | 285 kts | 84° |
| 2026-04-27 13:15 | 25.02789 | 102.98620 | 11318 ft | 291 kts | 83° |
| 2026-04-27 13:15 | 25.03047 | 103.00839 | 11883 ft | 295 kts | 84° |
| 2026-04-27 13:16 | 25.03271 | 103.03083 | 12396 ft | 299 kts | 85° |
| 2026-04-27 13:16 | 25.03476 | 103.05360 | 12974 ft | 300 kts | 85° |
| 2026-04-27 13:16 | 25.03675 | 103.07698 | 13501 ft | 303 kts | 85° |
| 2026-04-27 13:16 | 25.03871 | 103.10013 | 14037 ft | 306 kts | 85° |
| 2026-04-27 13:17 | 25.04071 | 103.12362 | 14555 ft | 308 kts | 85° |
| 2026-04-27 13:17 | 25.04272 | 103.14724 | 15078 ft | 310 kts | 85° |
| 2026-04-27 13:17 | 25.04475 | 103.17110 | 15553 ft | 314 kts | 85° |
| 2026-04-27 13:17 | 25.04695 | 103.19498 | 16019 ft | 317 kts | 83° |
| 2026-04-27 13:18 | 25.05182 | 103.21883 | 16486 ft | 319 kts | 69° |
| 2026-04-27 13:18 | 25.06290 | 103.23988 | 16898 ft | 320 kts | 48° |
| 2026-04-27 13:18 | 25.07942 | 103.25631 | 17343 ft | 319 kts | 33° |
| 2026-04-27 13:18 | 25.09778 | 103.27053 | 17833 ft | 320 kts | 32° |
| 2026-04-27 13:19 | 25.11609 | 103.28434 | 18274 ft | 323 kts | 32° |
| 2026-04-27 13:19 | 25.13465 | 103.29839 | 18711 ft | 325 kts | 32° |
| 2026-04-27 13:19 | 25.15363 | 103.31286 | 19124 ft | 327 kts | 32° |
| 2026-04-27 13:19 | 25.17239 | 103.32720 | 19487 ft | 331 kts | 33° |
| 2026-04-27 13:20 | 25.19173 | 103.34203 | 19844 ft | 340 kts | 33° |
| 2026-04-27 13:20 | 25.21133 | 103.35706 | 20342 ft | 345 kts | 33° |
| 2026-04-27 13:20 | 25.23148 | 103.37251 | 20555 ft | 360 kts | 33° |
| 2026-04-27 13:20 | 25.25265 | 103.38877 | 20793 ft | 374 kts | 33° |
| 2026-04-27 13:21 | 25.27430 | 103.40543 | 21034 ft | 386 kts | 33° |
| 2026-04-27 13:21 | 25.29676 | 103.42272 | 21256 ft | 399 kts | 33° |
| 2026-04-27 13:21 | 25.31998 | 103.44061 | 21385 ft | 414 kts | 33° |
| 2026-04-27 13:21 | 25.34411 | 103.45918 | 21577 ft | 427 kts | 33° |
| 2026-04-27 13:22 | 25.36895 | 103.47832 | 21868 ft | 436 kts | 33° |
| 2026-04-27 13:22 | 25.39385 | 103.49755 | 22355 ft | 439 kts | 33° |
| 2026-04-27 13:22 | 25.41937 | 103.51727 | 22921 ft | 440 kts | 33° |
| 2026-04-27 13:22 | 25.44465 | 103.53682 | 23386 ft | 444 kts | 34° |
| 2026-04-27 13:23 | 25.47011 | 103.55651 | 23882 ft | 446 kts | 34° |
| 2026-04-27 13:23 | 25.49555 | 103.57663 | 24345 ft | 449 kts | 37° |
| 2026-04-27 13:23 | 25.51961 | 103.59920 | 24842 ft | 452 kts | 43° |
| 2026-04-27 13:23 | 25.54120 | 103.62450 | 25269 ft | 455 kts | 50° |
| 2026-04-27 13:24 | 25.56081 | 103.65247 | 25692 ft | 459 kts | 54° |
| 2026-04-27 13:24 | 25.57919 | 103.68195 | 26143 ft | 461 kts | 57° |
| 2026-04-27 13:24 | 25.59673 | 103.71180 | 26610 ft | 463 kts | 58° |
| 2026-04-27 13:24 | 25.61387 | 103.74178 | 26998 ft | 467 kts | 58° |
| 2026-04-27 13:25 | 25.63133 | 103.77260 | 27359 ft | 471 kts | 58° |
| 2026-04-27 13:25 | 25.64887 | 103.80356 | 27745 ft | 474 kts | 58° |
| 2026-04-27 13:25 | 25.66645 | 103.83450 | 28212 ft | 474 kts | 58° |
| 2026-04-27 13:25 | 25.68426 | 103.86572 | 28596 ft | 477 kts | 58° |
| 2026-04-27 13:26 | 25.70228 | 103.89720 | 28951 ft | 481 kts | 57° |
| 2026-04-27 13:26 | 25.72023 | 103.92843 | 29391 ft | 482 kts | 57° |
| 2026-04-27 13:26 | 25.73843 | 103.96009 | 29963 ft | 480 kts | 57° |
| 2026-04-27 13:26 | 25.75620 | 103.99097 | 30606 ft | 476 kts | 57° |
| 2026-04-27 13:27 | 25.77412 | 104.02209 | 31218 ft | 472 kts | 57° |
| 2026-04-27 13:27 | 25.79171 | 104.05260 | 31807 ft | 468 kts | 57° |
| 2026-04-27 13:27 | 25.80940 | 104.08322 | 32366 ft | 465 kts | 57° |
| 2026-04-27 13:27 | 25.82671 | 104.11289 | 32945 ft | 461 kts | 57° |
| 2026-04-27 13:28 | 25.84434 | 104.14293 | 33509 ft | 458 kts | 57° |
| 2026-04-27 13:28 | 25.86176 | 104.17255 | 33944 ft | 458 kts | 56° |
| 2026-04-27 13:28 | 25.87918 | 104.20216 | 34322 ft | 458 kts | 56° |
| 2026-04-27 13:28 | 25.89654 | 104.23167 | 34659 ft | 459 kts | 56° |
| 2026-04-27 13:29 | 25.91414 | 104.26160 | 34981 ft | 461 kts | 56° |
| 2026-04-27 13:29 | 25.93162 | 104.29138 | 35290 ft | 462 kts | 56° |
| 2026-04-27 13:29 | 25.94935 | 104.32163 | 35572 ft | 464 kts | 56° |
| 2026-04-27 13:29 | 25.96704 | 104.35181 | 35885 ft | 464 kts | 56° |
| 2026-04-27 13:30 | 25.98474 | 104.38206 | 36266 ft | 463 kts | 56° |
| 2026-04-27 13:30 | 26.00231 | 104.41183 | 36653 ft | 462 kts | 54° |
| 2026-04-27 13:30 | 26.02097 | 104.44151 | 36970 ft | 462 kts | 51° |
| 2026-04-27 13:30 | 26.04187 | 104.46935 | 37219 ft | 461 kts | 45° |
| 2026-04-27 13:31 | 26.08905 | 104.51764 | 37200 ft | 456 kts | 38° |
| 2026-04-27 13:31 | 26.13843 | 104.56174 | 37203 ft | 456 kts | 37° |
| 2026-04-27 13:32 | 26.18845 | 104.60616 | 37207 ft | 456 kts | 37° |
| 2026-04-27 13:32 | 26.23799 | 104.65111 | 37210 ft | 457 kts | 38° |
| 2026-04-27 13:33 | 26.28744 | 104.69668 | 37213 ft | 459 kts | 38° |
| 2026-04-27 13:33 | 26.33660 | 104.74232 | 37211 ft | 458 kts | 38° |
| 2026-04-27 13:34 | 26.38572 | 104.78812 | 37195 ft | 458 kts | 38° |
| 2026-04-27 13:34 | 26.43452 | 104.83372 | 37204 ft | 459 kts | 38° |
| 2026-04-27 13:35 | 26.48394 | 104.87993 | 37200 ft | 461 kts | 38° |
| 2026-04-27 13:35 | 26.53296 | 104.92584 | 37200 ft | 460 kts | 38° |
| 2026-04-27 13:36 | 26.58223 | 104.97205 | 37196 ft | 462 kts | 38° |
| 2026-04-27 13:36 | 26.62992 | 105.02068 | 37193 ft | 464 kts | 47° |
| 2026-04-27 13:37 | 26.66524 | 105.08082 | 37204 ft | 466 kts | 62° |
| 2026-04-27 13:37 | 26.69310 | 105.14688 | 37196 ft | 468 kts | 65° |
| 2026-04-27 13:38 | 26.71926 | 105.21387 | 37192 ft | 468 kts | 66° |
| 2026-04-27 13:38 | 26.74520 | 105.28047 | 37191 ft | 468 kts | 66° |
| 2026-04-27 13:39 | 26.77158 | 105.34752 | 37172 ft | 468 kts | 65° |
| 2026-04-27 13:39 | 26.79799 | 105.41411 | 37176 ft | 469 kts | 65° |
| 2026-04-27 13:40 | 26.82450 | 105.48075 | 37174 ft | 469 kts | 65° |
| 2026-04-27 13:40 | 26.85110 | 105.54758 | 37164 ft | 471 kts | 65° |
| 2026-04-27 13:41 | 26.87784 | 105.61483 | 37164 ft | 471 kts | 65° |
| 2026-04-27 13:41 | 26.90436 | 105.68166 | 37160 ft | 470 kts | 66° |
| 2026-04-27 13:42 | 26.93104 | 105.74898 | 37161 ft | 469 kts | 65° |
| 2026-04-27 13:42 | 26.95755 | 105.81596 | 37161 ft | 471 kts | 66° |
| 2026-04-27 13:43 | 26.98420 | 105.88343 | 37145 ft | 471 kts | 66° |
| 2026-04-27 13:43 | 27.01083 | 105.95093 | 37140 ft | 470 kts | 66° |
| 2026-04-27 13:44 | 27.03726 | 106.01804 | 37136 ft | 471 kts | 66° |
| 2026-04-27 13:44 | 27.06499 | 106.08437 | 37137 ft | 473 kts | 62° |
| 2026-04-27 13:45 | 27.09522 | 106.14992 | 37137 ft | 472 kts | 61° |
| 2026-04-27 13:45 | 27.12599 | 106.21566 | 37130 ft | 471 kts | 61° |
| 2026-04-27 13:46 | 27.15646 | 106.28142 | 37130 ft | 472 kts | 62° |
| 2026-04-27 13:46 | 27.18661 | 106.34720 | 37121 ft | 472 kts | 62° |
| 2026-04-27 13:47 | 27.21667 | 106.41317 | 37116 ft | 473 kts | 62° |
| 2026-04-27 13:47 | 27.24655 | 106.47890 | 37107 ft | 472 kts | 62° |
| 2026-04-27 13:48 | 27.27657 | 106.54506 | 37089 ft | 472 kts | 62° |
| 2026-04-27 13:48 | 27.30649 | 106.61114 | 37094 ft | 472 kts | 61° |
| 2026-04-27 13:49 | 27.33598 | 106.67641 | 37096 ft | 473 kts | 62° |
| 2026-04-27 13:49 | 27.36597 | 106.74285 | 37091 ft | 474 kts | 62° |
| 2026-04-27 13:50 | 27.39568 | 106.80897 | 37088 ft | 473 kts | 62° |
| 2026-04-27 13:50 | 27.42547 | 106.87555 | 37091 ft | 474 kts | 62° |
| 2026-04-27 13:51 | 27.45474 | 106.94112 | 37086 ft | 473 kts | 62° |
| 2026-04-27 13:51 | 27.48425 | 107.00723 | 37088 ft | 472 kts | 62° |
| 2026-04-27 13:52 | 27.51427 | 107.07381 | 37088 ft | 473 kts | 61° |
| 2026-04-27 13:52 | 27.54434 | 107.14021 | 37083 ft | 473 kts | 61° |
| 2026-04-27 13:53 | 27.58925 | 107.23956 | 37077 ft | 476 kts | 61° |
| 2026-04-27 13:54 | 27.61916 | 107.30587 | 37073 ft | 474 kts | 61° |
| 2026-04-27 13:54 | 27.64907 | 107.37231 | 37068 ft | 474 kts | 61° |
| 2026-04-27 13:55 | 27.67875 | 107.43840 | 37068 ft | 475 kts | 61° |
| 2026-04-27 13:55 | 27.70843 | 107.50455 | 37064 ft | 475 kts | 61° |
| 2026-04-27 13:56 | 27.73826 | 107.57116 | 37063 ft | 475 kts | 61° |
| 2026-04-27 13:56 | 27.76784 | 107.63729 | 37066 ft | 474 kts | 61° |
| 2026-04-27 13:57 | 27.79763 | 107.70403 | 37070 ft | 473 kts | 61° |
| 2026-04-27 13:57 | 27.82738 | 107.77078 | 37071 ft | 475 kts | 61° |
| 2026-04-27 13:58 | 27.85736 | 107.83723 | 37055 ft | 473 kts | 60° |
| 2026-04-27 13:58 | 27.88781 | 107.90374 | 37045 ft | 475 kts | 60° |
| 2026-04-27 13:59 | 27.91810 | 107.96987 | 37042 ft | 473 kts | 60° |
| 2026-04-27 13:59 | 27.94847 | 108.03635 | 37037 ft | 474 kts | 60° |
| 2026-04-27 14:00 | 27.97864 | 108.10259 | 37036 ft | 475 kts | 60° |
| 2026-04-27 14:00 | 28.00893 | 108.16930 | 37033 ft | 474 kts | 60° |
| 2026-04-27 14:01 | 28.03908 | 108.23583 | 37031 ft | 474 kts | 60° |
| 2026-04-27 14:01 | 28.06914 | 108.30231 | 37033 ft | 471 kts | 60° |
| 2026-04-27 14:02 | 28.09916 | 108.36876 | 37035 ft | 472 kts | 60° |
| 2026-04-27 14:02 | 28.12818 | 108.43310 | 37040 ft | 473 kts | 60° |
| 2026-04-27 14:03 | 28.15800 | 108.49934 | 37036 ft | 472 kts | 60° |
| 2026-04-27 14:03 | 28.18779 | 108.56561 | 37045 ft | 471 kts | 60° |
| 2026-04-27 14:04 | 28.21763 | 108.63210 | 37053 ft | 472 kts | 60° |
| 2026-04-27 14:04 | 28.24725 | 108.69823 | 37059 ft | 473 kts | 60° |
| 2026-04-27 14:05 | 28.27708 | 108.76492 | 37067 ft | 472 kts | 60° |
| 2026-04-27 14:05 | 28.30663 | 108.83108 | 37057 ft | 472 kts | 60° |
| 2026-04-27 14:06 | 28.33630 | 108.89767 | 37053 ft | 470 kts | 60° |
| 2026-04-27 14:06 | 28.36568 | 108.96367 | 37044 ft | 472 kts | 60° |
| 2026-04-27 14:07 | 28.39523 | 109.03014 | 37040 ft | 472 kts | 60° |
| 2026-04-27 14:07 | 28.42479 | 109.09678 | 37036 ft | 471 kts | 60° |
| 2026-04-27 14:08 | 28.45431 | 109.16343 | 37033 ft | 471 kts | 60° |
| 2026-04-27 14:08 | 28.48373 | 109.23013 | 37030 ft | 471 kts | 60° |
| 2026-04-27 14:09 | 28.51316 | 109.29703 | 37028 ft | 470 kts | 60° |
| 2026-04-27 14:09 | 28.54261 | 109.36410 | 37030 ft | 471 kts | 60° |
| 2026-04-27 14:10 | 28.57168 | 109.43043 | 37035 ft | 469 kts | 60° |
| 2026-04-27 14:10 | 28.60286 | 109.49556 | 37038 ft | 467 kts | 55° |
| 2026-04-27 14:11 | 28.63732 | 109.55881 | 37037 ft | 468 kts | 53° |
| 2026-04-27 14:11 | 28.67212 | 109.62127 | 37030 ft | 466 kts | 53° |
| 2026-04-27 14:12 | 28.70676 | 109.68411 | 37032 ft | 468 kts | 54° |
| 2026-04-27 14:12 | 28.72403 | 109.71568 | 36546 ft | 472 kts | 54° |
| 2026-04-27 14:12 | 28.74144 | 109.74761 | 35742 ft | 473 kts | 55° |
| 2026-04-27 14:12 | 28.75883 | 109.77966 | 34810 ft | 473 kts | 56° |
| 2026-04-27 14:13 | 28.77584 | 109.81113 | 33941 ft | 465 kts | 56° |
| 2026-04-27 14:13 | 28.79272 | 109.84245 | 33069 ft | 458 kts | 56° |
| 2026-04-27 14:13 | 28.80927 | 109.87319 | 32274 ft | 452 kts | 57° |
| 2026-04-27 14:13 | 28.82560 | 109.90357 | 31477 ft | 446 kts | 57° |
| 2026-04-27 14:14 | 28.84179 | 109.93369 | 30682 ft | 440 kts | 57° |
| 2026-04-27 14:14 | 28.85754 | 109.96303 | 29898 ft | 434 kts | 57° |
| 2026-04-27 14:14 | 28.87327 | 109.99230 | 29107 ft | 429 kts | 57° |
| 2026-04-27 14:14 | 28.88870 | 110.02107 | 28354 ft | 423 kts | 58° |
| 2026-04-27 14:15 | 28.90396 | 110.04956 | 27602 ft | 418 kts | 57° |
| 2026-04-27 14:15 | 28.91914 | 110.07790 | 26843 ft | 414 kts | 57° |
| 2026-04-27 14:15 | 28.93416 | 110.10596 | 26087 ft | 409 kts | 57° |
| 2026-04-27 14:15 | 28.94879 | 110.13331 | 25341 ft | 404 kts | 57° |
| 2026-04-27 14:16 | 28.96299 | 110.15989 | 24611 ft | 400 kts | 57° |
| 2026-04-27 14:16 | 28.97668 | 110.18553 | 23903 ft | 396 kts | 57° |
| 2026-04-27 14:16 | 28.99087 | 110.21214 | 23187 ft | 391 kts | 57° |
| 2026-04-27 14:16 | 29.00493 | 110.23852 | 22472 ft | 387 kts | 57° |
| 2026-04-27 14:17 | 29.01884 | 110.26462 | 21773 ft | 382 kts | 57° |
| 2026-04-27 14:17 | 29.03205 | 110.29094 | 21060 ft | 379 kts | 63° |
| 2026-04-27 14:17 | 29.04156 | 110.31876 | 20356 ft | 376 kts | 74° |
| 2026-04-27 14:17 | 29.04616 | 110.34813 | 19640 ft | 372 kts | 86° |
| 2026-04-27 14:18 | 29.04556 | 110.37739 | 18941 ft | 368 kts | 98° |
| 2026-04-27 14:18 | 29.03949 | 110.40543 | 18233 ft | 363 kts | 113° |
| 2026-04-27 14:18 | 29.02772 | 110.43065 | 17530 ft | 357 kts | 126° |
| 2026-04-27 14:18 | 29.01233 | 110.45254 | 16840 ft | 352 kts | 135° |
| 2026-04-27 14:19 | 28.99489 | 110.47214 | 16136 ft | 347 kts | 140° |
| 2026-04-27 14:19 | 28.97551 | 110.48796 | 15431 ft | 340 kts | 154° |
| 2026-04-27 14:19 | 28.95365 | 110.49800 | 14723 ft | 334 kts | 166° |
| 2026-04-27 14:19 | 28.93130 | 110.50299 | 14026 ft | 329 kts | 175° |
| 2026-04-27 14:20 | 28.90842 | 110.50472 | 13304 ft | 324 kts | 182° |
| 2026-04-27 14:20 | 28.88598 | 110.50219 | 12568 ft | 319 kts | 194° |
| 2026-04-27 14:20 | 28.86522 | 110.49449 | 11983 ft | 309 kts | 205° |
| 2026-04-27 14:20 | 28.84640 | 110.48321 | 11494 ft | 299 kts | 213° |
| 2026-04-27 14:21 | 28.82934 | 110.46999 | 11006 ft | 290 kts | 219° |
| 2026-04-27 14:21 | 28.81510 | 110.45481 | 10805 ft | 272 kts | 230° |
| 2026-04-27 14:21 | 28.80416 | 110.43798 | 10812 ft | 255 kts | 239° |
| 2026-04-27 14:21 | 28.79553 | 110.42027 | 10818 ft | 257 kts | 244° |
| 2026-04-27 14:22 | 28.78848 | 110.40141 | 10816 ft | 255 kts | 252° |
| 2026-04-27 14:22 | 28.78410 | 110.38178 | 10819 ft | 257 kts | 261° |
| 2026-04-27 14:22 | 28.78219 | 110.36063 | 10650 ft | 276 kts | 268° |
| 2026-04-27 14:22 | 28.78280 | 110.33886 | 10405 ft | 270 kts | 275° |
| 2026-04-27 14:23 | 28.78578 | 110.31805 | 10163 ft | 268 kts | 283° |
| 2026-04-27 14:23 | 28.79164 | 110.29752 | 9921 ft | 268 kts | 292° |
| 2026-04-27 14:23 | 28.80016 | 110.27869 | 9683 ft | 266 kts | 300° |
| 2026-04-27 14:23 | 28.81083 | 110.26220 | 9436 ft | 256 kts | 310° |
| 2026-04-27 14:24 | 28.82340 | 110.24773 | 9200 ft | 256 kts | 317° |
| 2026-04-27 14:24 | 28.83745 | 110.23447 | 8952 ft | 258 kts | 322° |
| 2026-04-27 14:24 | 28.85157 | 110.22202 | 8710 ft | 256 kts | 321° |
| 2026-04-27 14:24 | 28.86522 | 110.20849 | 8470 ft | 256 kts | 317° |
| 2026-04-27 14:25 | 28.87760 | 110.19375 | 8228 ft | 259 kts | 310° |
| 2026-04-27 14:25 | 28.88840 | 110.17729 | 7983 ft | 258 kts | 304° |
| 2026-04-27 14:25 | 28.89821 | 110.16039 | 7865 ft | 253 kts | 303° |
| 2026-04-27 14:25 | 28.90808 | 110.14346 | 7883 ft | 257 kts | 304° |
| 2026-04-27 14:26 | 28.91777 | 110.12604 | 7880 ft | 259 kts | 295° |
| 2026-04-27 14:26 | 28.92201 | 110.10586 | 7892 ft | 259 kts | 267° |
| 2026-04-27 14:26 | 28.91892 | 110.08582 | 7901 ft | 259 kts | 250° |
| 2026-04-27 14:26 | 28.91176 | 110.06690 | 7890 ft | 260 kts | 241° |
| 2026-04-27 14:27 | 28.90272 | 110.04893 | 7893 ft | 261 kts | 238° |
| 2026-04-27 14:27 | 28.89306 | 110.03117 | 7900 ft | 258 kts | 237° |
| 2026-04-27 14:27 | 28.88368 | 110.01381 | 7894 ft | 256 kts | 238° |
| 2026-04-27 14:27 | 28.87472 | 109.99683 | 7884 ft | 237 kts | 240° |
| 2026-04-27 14:28 | 28.86815 | 109.97997 | 7895 ft | 236 kts | 257° |
| 2026-04-27 14:28 | 28.86786 | 109.96101 | 7893 ft | 238 kts | 285° |
| 2026-04-27 14:28 | 28.87441 | 109.94391 | 7897 ft | 237 kts | 304° |
| 2026-04-27 14:28 | 28.88506 | 109.92943 | 7888 ft | 236 kts | 323° |
| 2026-04-27 14:29 | 28.89972 | 109.92118 | 7897 ft | 233 kts | 352° |
| 2026-04-27 14:29 | 28.91582 | 109.92067 | 7769 ft | 233 kts | 10° |
| 2026-04-27 14:29 | 28.93144 | 109.92526 | 7414 ft | 232 kts | 27° |
| 2026-04-27 14:29 | 28.94414 | 109.93613 | 7134 ft | 224 kts | 54° |
| 2026-04-27 14:30 | 28.95131 | 109.95162 | 6874 ft | 218 kts | 73° |
| 2026-04-27 14:30 | 28.95453 | 109.96838 | 6594 ft | 214 kts | 87° |
| 2026-04-27 14:30 | 28.95269 | 109.98495 | 6335 ft | 211 kts | 104° |
| 2026-04-27 14:30 | 28.94900 | 110.00107 | 6067 ft | 208 kts | 101° |
| 2026-04-27 14:31 | 28.94950 | 110.01730 | 5817 ft | 205 kts | 69° |
| 2026-04-27 14:31 | 28.95751 | 110.03057 | 5585 ft | 203 kts | 47° |
| 2026-04-27 14:31 | 28.96842 | 110.04076 | 5334 ft | 203 kts | 39° |
| 2026-04-27 14:31 | 28.97999 | 110.04981 | 5114 ft | 200 kts | 37° |
| 2026-04-27 14:32 | 28.99087 | 110.05924 | 4995 ft | 189 kts | 46° |
| 2026-04-27 14:32 | 28.99971 | 110.06973 | 4930 ft | 177 kts | 49° |
| 2026-04-27 14:32 | 29.00834 | 110.07946 | 4820 ft | 169 kts | 46° |
| 2026-04-27 14:32 | 29.01648 | 110.08867 | 4660 ft | 163 kts | 50° |
| 2026-04-27 14:33 | 29.02294 | 110.09897 | 4445 ft | 156 kts | 68° |
| 2026-04-27 14:33 | 29.02625 | 110.11061 | 4294 ft | 146 kts | 75° |
| 2026-04-27 14:33 | 29.02960 | 110.12129 | 4115 ft | 142 kts | 70° |
| 2026-04-27 14:33 | 29.03222 | 110.13198 | 3921 ft | 137 kts | 77° |
| 2026-04-27 14:34 | 29.03427 | 110.14249 | 3899 ft | 132 kts | 77° |
| 2026-04-27 14:34 | 29.03700 | 110.15292 | 3934 ft | 141 kts | 72° |
| 2026-04-27 14:34 | 29.03962 | 110.16370 | 3907 ft | 141 kts | 76° |
| 2026-04-27 14:34 | 29.04207 | 110.17467 | 3934 ft | 142 kts | 73° |
| 2026-04-27 14:35 | 29.04479 | 110.18543 | 3923 ft | 139 kts | 74° |
| 2026-04-27 14:35 | 29.04724 | 110.19635 | 3925 ft | 142 kts | 76° |
| 2026-04-27 14:35 | 29.04964 | 110.20733 | 3919 ft | 140 kts | 75° |
| 2026-04-27 14:35 | 29.05220 | 110.21815 | 3932 ft | 140 kts | 73° |
| 2026-04-27 14:36 | 29.05480 | 110.22917 | 3930 ft | 143 kts | 75° |
| 2026-04-27 14:36 | 29.05732 | 110.24027 | 3929 ft | 144 kts | 77° |
| 2026-04-27 14:36 | 29.05938 | 110.25130 | 3916 ft | 139 kts | 74° |
| 2026-04-27 14:36 | 29.06224 | 110.26185 | 3928 ft | 141 kts | 70° |
| 2026-04-27 14:37 | 29.06539 | 110.27262 | 3741 ft | 142 kts | 75° |
| 2026-04-27 14:37 | 29.06697 | 110.28378 | 3460 ft | 138 kts | 79° |
| 2026-04-27 14:37 | 29.06912 | 110.29452 | 3334 ft | 138 kts | 73° |
| 2026-04-27 14:37 | 29.07182 | 110.30515 | 3117 ft | 141 kts | 73° |
| 2026-04-27 14:38 | 29.07423 | 110.31596 | 2880 ft | 138 kts | 75° |
| 2026-04-27 14:38 | 29.07649 | 110.32664 | 2704 ft | 140 kts | 74° |
| 2026-04-27 14:38 | 29.07903 | 110.33747 | 2497 ft | 140 kts | 73° |
| 2026-04-27 14:38 | 29.08147 | 110.34820 | 2296 ft | 141 kts | 73° |
| 2026-04-27 14:39 | 29.08391 | 110.35910 | 2092 ft | 142 kts | 74° |
| 2026-04-27 14:39 | 29.08640 | 110.37015 | 1895 ft | 143 kts | 73° |
| 2026-04-27 14:39 | 29.08889 | 110.38115 | 1692 ft | 143 kts | 74° |
| 2026-04-27 14:39 | 29.09139 | 110.39236 | 1486 ft | 145 kts | 74° |
| 2026-04-27 14:40 | 29.09392 | 110.40352 | 1282 ft | 145 kts | 74° |
| 2026-04-27 14:40 | 29.09644 | 110.41473 | 1077 ft | 144 kts | 73° |
| 2026-04-27 14:40 | 29.09898 | 110.42595 | 874 ft | 145 kts | 73° |
| 2026-04-27 14:40 | 29.10160 | 110.43712 | 740 ft | 133 kts | 73° |
| 2026-04-27 14:41 | 29.10336 | 110.44524 | 740 ft | 71 kts | 78° |
| 2026-04-27 14:41 | 29.10411 | 110.44870 | 739 ft | 27 kts | 72° |
| 2026-04-27 14:41 | 29.10469 | 110.45036 | 739 ft | 21 kts | 57° |
| 2026-04-27 14:41 | 29.10568 | 110.45158 | 739 ft | 19 kts | 43° |
| 2026-04-27 14:42 | 29.10636 | 110.45118 | 739 ft | 15 kts | 263° |
| 2026-04-27 14:42 | 29.10610 | 110.45001 | 739 ft | 15 kts | 255° |
| 2026-04-27 14:42 | 29.10583 | 110.44885 | 739 ft | 14 kts | 255° |
| 2026-04-27 14:42 | 29.10554 | 110.44775 | 739 ft | 14 kts | 245° |
| 2026-04-27 14:43 | 29.10527 | 110.44669 | 740 ft | 13 kts | 259° |
| 2026-04-27 14:43 | 29.10505 | 110.44562 | 740 ft | 13 kts | 256° |
| 2026-04-27 14:43 | 29.10487 | 110.44463 | 740 ft | 10 kts | 285° |
| 2026-04-27 14:43 | 29.10515 | 110.44441 | 740 ft | 0 kts | 344° |
| 2026-04-27 14:44 | 29.10526 | 110.44437 | 740 ft | 3 kts | 342° |
| 2026-04-27 14:44 | 29.10530 | 110.44437 | 740 ft | 1 kts | 346° |
| 2026-04-27 14:44 | 29.10532 | 110.44436 | 740 ft | 0 kts | 346° |
| 2026-04-27 14:44 | 29.10526 | 110.44437 | 740 ft | 3 kts | 346° |
| 2026-04-27 14:45 | 29.10529 | 110.44437 | 740 ft | 2 kts | 346° |
| 2026-04-27 14:45 | 29.10531 | 110.44436 | 740 ft | 1 kts | 346° |